Time;durP1;ratioP1;P1;durP2;ratioP2;P2;SDS_P1;SDS_P2;PMS_P1;PMS_P2;Temp;Humidity;BMP_temperature;BMP_pressure;BME280_temperature;BME280_humidity;BME280_pressure;Samples;Min_cycle;Max_cycle;Signal;HPM_P1;HPM_P2
2022/06/27 00:00:18;;;;;;;4.30;1.15;;;13.00;99.20;;;;;;5049525;28;20079;-74
2022/06/27 00:02:45;;;;;;;3.95;1.00;;;13.10;99.40;;;;;;5034816;28;20028;-76
2022/06/27 00:05:13;;;;;;;1.42;0.60;;;13.10;98.90;;;;;;5033818;28;20041;-75
2022/06/27 00:07:41;;;;;;;3.28;0.70;;;13.20;98.90;;;;;;5033826;28;20053;-75
2022/06/27 00:10:09;;;;;;;1.00;0.60;;;13.20;98.80;;;;;;5034080;28;20026;-77
2022/06/27 00:12:38;;;;;;;2.60;0.95;;;13.20;98.80;;;;;;5033206;28;20038;-75
2022/06/27 00:15:07;;;;;;;1.50;0.85;;;13.40;98.70;;;;;;5034364;28;20040;-75
2022/06/27 00:17:34;;;;;;;3.38;0.75;;;13.40;98.90;;;;;;5050148;28;20025;-74
2022/06/27 00:20:03;;;;;;;2.60;0.80;;;13.50;98.60;;;;;;5034367;28;20048;-74
2022/06/27 00:22:30;;;;;;;2.97;0.68;;;13.60;98.50;;;;;;5034726;28;20022;-75
2022/06/27 00:24:58;;;;;;;3.70;0.90;;;13.70;98.40;;;;;;5034100;28;20040;-75
2022/06/27 00:27:29;;;;;;;4.85;1.30;;;13.80;98.30;;;;;;5034524;28;20397;-74
2022/06/27 00:29:56;;;;;;;5.15;1.00;;;13.90;97.70;;;;;;5049744;28;20060;-76
2022/06/27 00:32:24;;;;;;;7.35;1.75;;;13.90;97.60;;;;;;5034508;28;20068;-75
2022/06/27 00:34:51;;;;;;;1.90;0.80;;;14.00;97.70;;;;;;5034259;28;20100;-74
2022/06/27 00:37:19;;;;;;;4.50;1.33;;;14.00;97.80;;;;;;5034413;28;20025;-73
2022/06/27 00:39:47;;;;;;;6.78;1.30;;;14.20;97.40;;;;;;5048071;28;20053;-75
2022/06/27 00:42:14;;;;;;;3.83;1.17;;;14.20;97.40;;;;;;5032900;28;20021;-75
2022/06/27 00:44:43;;;;;;;7.38;1.20;;;14.20;97.50;;;;;;5032688;28;20100;-75
2022/06/27 00:47:15;;;;;;;3.25;1.02;;;14.30;97.30;;;;;;5032675;28;20482;-74
2022/06/27 00:49:43;;;;;;;4.20;1.15;;;14.40;97.20;;;;;;5032626;28;20391;-76
2022/06/27 00:52:13;;;;;;;5.05;1.40;;;14.40;96.70;;;;;;5032334;28;20017;-75
2022/06/27 00:54:42;;;;;;;6.80;1.40;;;14.50;96.80;;;;;;5031798;28;20082;-74
2022/06/27 00:57:12;;;;;;;7.32;1.25;;;14.50;96.80;;;;;;5032109;28;20385;-76
2022/06/27 00:59:41;;;;;;;6.88;1.13;;;14.60;96.80;;;;;;5032111;28;20026;-76
2022/06/27 01:02:09;;;;;;;2.53;1.08;;;14.70;97.20;;;;;;5032549;28;20382;-75
2022/06/27 01:04:37;;;;;;;7.53;1.80;;;14.80;97.30;;;;;;5032675;28;20021;-76
2022/06/27 01:07:08;;;;;;;3.97;1.30;;;14.80;96.90;;;;;;5032672;28;20021;-76
2022/06/27 01:09:44;;;;;;;6.40;1.40;;;14.90;97.00;;;;;;5044007;28;20029;-77
2022/06/27 01:12:12;;;;;;;6.03;1.75;;;15.00;96.90;;;;;;5023307;28;20484;-76
2022/06/27 01:14:39;;;;;;;6.57;1.90;;;15.10;96.40;;;;;;5047509;28;20025;-75
2022/06/27 01:17:07;;;;;;;6.53;1.48;;;15.20;96.20;;;;;;5032333;28;20549;-75
2022/06/27 01:19:35;;;;;;;5.40;1.25;;;15.20;96.10;;;;;;5040422;28;20493;-78
2022/06/27 01:22:07;;;;;;;5.10;1.10;;;15.10;96.00;;;;;;5067848;28;20477;-78
2022/06/27 01:24:34;;;;;;;4.47;1.95;;;15.10;96.00;;;;;;5051234;28;20119;-77
2022/06/27 01:27:02;;;;;;;6.00;1.45;;;15.00;96.00;;;;;;5052152;28;20067;-77
2022/06/27 01:29:30;;;;;;;4.60;1.45;;;14.90;95.60;;;;;;5051525;28;20013;-76
2022/06/27 01:31:57;;;;;;;5.70;2.15;;;14.90;96.00;;;;;;5051067;28;20047;-77
2022/06/27 01:34:26;;;;;;;4.82;2.05;;;15.00;95.60;;;;;;5051902;28;20025;-77
2022/06/27 01:36:54;;;;;;;5.22;2.85;;;15.20;95.80;;;;;;5051609;28;20373;-77
2022/06/27 01:39:24;;;;;;;5.80;1.77;;;15.40;95.00;;;;;;5055770;28;20038;-79
2022/06/27 01:41:56;;;;;;;6.15;1.42;;;15.40;94.90;;;;;;5025206;28;20029;-79
2022/06/27 01:44:24;;;;;;;;;;;15.40;94.90;;;;;;5034129;28;20025;-82
2022/06/27 01:47:10;;;;;;;7.60;1.55;;;15.40;94.50;;;;;;5031281;28;19955;-76
2022/06/27 01:49:38;;;;;;;8.85;1.92;;;15.50;94.50;;;;;;5031738;28;20437;-78
2022/06/27 01:52:08;;;;;;;5.50;1.63;;;15.70;94.30;;;;;;5032778;28;20534;-77
2022/06/27 01:54:37;;;;;;;10.18;3.08;;;15.80;94.40;;;;;;5031803;28;20385;-81
2022/06/27 01:57:05;;;;;;;6.38;1.85;;;15.90;94.30;;;;;;5032903;28;20022;-78
2022/06/27 01:59:34;;;;;;;8.05;2.63;;;16.00;93.90;;;;;;5031370;28;20025;-82
2022/06/27 02:02:03;;;;;;;7.10;2.40;;;16.10;93.30;;;;;;5031926;28;20033;-78
2022/06/27 02:04:32;;;;;;;9.95;2.35;;;16.10;93.30;;;;;;5032223;28;20021;-74
2022/06/27 02:07:00;;;;;;;7.43;1.83;;;16.10;93.30;;;;;;5031769;28;20064;-76
2022/06/27 02:09:28;;;;;;;8.00;1.85;;;16.00;93.40;;;;;;5038068;28;20017;-75
2022/06/27 02:11:55;;;;;;;8.02;2.88;;;15.90;93.80;;;;;;5050501;28;20379;-77
2022/06/27 02:14:24;;;;;;;7.43;1.67;;;15.70;93.70;;;;;;5051340;28;20033;-73
2022/06/27 02:16:52;;;;;;;8.07;1.88;;;15.60;94.10;;;;;;5052189;28;20025;-78
2022/06/27 02:19:21;;;;;;;7.55;1.77;;;15.60;94.40;;;;;;5051856;28;20029;-77
2022/06/27 02:21:49;;;;;;;8.80;2.22;;;15.60;94.30;;;;;;5053041;28;20013;-78
2022/06/27 02:24:16;;;;;;;7.97;1.50;;;15.70;94.50;;;;;;5054365;28;20017;-75
2022/06/27 02:26:44;;;;;;;8.13;2.60;;;15.90;94.50;;;;;;5053450;28;20052;-82
2022/06/27 02:29:12;;;;;;;5.30;2.38;;;16.00;94.40;;;;;;5053440;28;20412;-76
2022/06/27 02:31:50;;;;;;;7.40;2.45;;;16.00;94.10;;;;;;5051017;28;20495;-76
2022/06/27 02:34:18;;;;;;;7.65;1.80;;;15.90;94.30;;;;;;5053089;28;20044;-75
2022/06/27 02:36:49;;;;;;;10.55;2.38;;;15.80;94.10;;;;;;5053902;28;20029;-78
2022/06/27 02:39:25;;;;;;;10.38;3.42;;;15.70;94.20;;;;;;5046849;28;20548;-76
2022/06/27 02:41:54;;;;;;;6.95;2.55;;;15.60;94.50;;;;;;5049914;28;20103;-77
2022/06/27 02:44:22;;;;;;;11.18;2.30;;;15.40;94.60;;;;;;5034715;28;20032;-77
2022/06/27 02:46:53;;;;;;;8.15;3.15;;;15.40;94.60;;;;;;5034586;28;20013;-77
2022/06/27 02:49:21;;;;;;;8.93;2.30;;;15.40;94.60;;;;;;5041325;28;20351;-77
2022/06/27 02:52:30;;;;;;;9.10;3.00;;;15.40;94.60;;;;;;5054175;28;20106;-76
2022/06/27 02:55:07;;;;;;;9.38;3.15;;;15.40;94.00;;;;;;5012142;28;20048;-76
2022/06/27 02:57:46;;;;;;;10.02;1.95;;;15.40;93.70;;;;;;5051019;28;20119;-75
2022/06/27 03:00:15;;;;;;;9.85;2.83;;;15.50;92.90;;;;;;5054329;28;20155;-75
2022/06/27 03:02:46;;;;;;;8.23;2.30;;;15.80;92.80;;;;;;5053325;28;20037;-77
2022/06/27 03:05:14;;;;;;;8.53;1.90;;;16.30;91.90;;;;;;5069646;28;20020;-79
2022/06/27 03:07:43;;;;;;;6.18;1.70;;;16.50;91.00;;;;;;5054417;28;20266;-74
2022/06/27 03:10:14;;;;;;;3.92;1.48;;;16.30;89.00;;;;;;5070428;28;20464;-75
2022/06/27 03:12:42;;;;;;;5.97;1.77;;;16.30;89.20;;;;;;5032774;28;20041;-77
2022/06/27 03:15:10;;;;;;;5.85;2.10;;;16.70;86.00;;;;;;5030195;28;20028;-81
2022/06/27 03:17:38;;;;;;;3.80;1.90;;;17.00;84.80;;;;;;5050130;28;20027;-75
2022/06/27 03:20:06;;;;;;;5.00;2.22;;;17.10;84.40;;;;;;5034143;28;20486;-76
2022/06/27 03:22:33;;;;;;;5.38;1.50;;;17.30;84.60;;;;;;5034347;28;20026;-76
2022/06/27 03:25:00;;;;;;;2.55;1.52;;;17.50;81.90;;;;;;5034791;28;20470;-78
2022/06/27 03:27:28;;;;;;;5.45;1.77;;;17.50;80.00;;;;;;5034787;28;20041;-79
2022/06/27 03:29:55;;;;;;;3.78;1.08;;;17.40;80.20;;;;;;5033649;28;20068;-81
2022/06/27 03:32:22;;;;;;;4.00;1.15;;;17.30;80.80;;;;;;5033233;28;20038;-77
2022/06/27 03:34:49;;;;;;;3.63;1.60;;;17.40;79.00;;;;;;5032568;28;20040;-76
2022/06/27 03:37:20;;;;;;;5.78;1.30;;;17.30;79.60;;;;;;5034175;28;20022;-77
2022/06/27 03:39:47;;;;;;;5.20;2.63;;;17.00;79.90;;;;;;5049483;28;20034;-80
2022/06/27 03:42:14;;;;;;;9.55;1.80;;;17.10;80.60;;;;;;5033742;28;20014;-77
2022/06/27 03:44:42;;;;;;;4.35;1.95;;;17.60;80.60;;;;;;5033802;28;20017;-79
2022/06/27 03:47:09;;;;;;;2.50;1.10;;;17.90;79.00;;;;;;5033596;28;20032;-77
2022/06/27 03:52:23;;;;;;;3.72;1.38;;;17.30;79.50;;;;;;5033134;28;20076;-79
2022/06/27 03:54:50;;;;;;;3.42;1.67;;;17.10;81.20;;;;;;5032890;28;20021;-79
2022/06/27 03:57:17;;;;;;;7.32;2.38;;;16.80;80.90;;;;;;5033215;28;20028;-80
2022/06/27 03:59:45;;;;;;;3.13;1.75;;;16.50;81.90;;;;;;5034239;28;20025;-80
2022/06/27 04:02:14;;;;;;;4.07;1.38;;;16.20;82.10;;;;;;5033586;28;20378;-80
2022/06/27 04:04:41;;;;;;;4.38;1.92;;;16.00;82.80;;;;;;5033469;28;20068;-79
2022/06/27 04:07:08;;;;;;;3.20;1.55;;;15.90;83.60;;;;;;5033537;28;20025;-79
2022/06/27 04:09:36;;;;;;;5.25;1.60;;;15.90;84.20;;;;;;5032883;28;20017;-80
2022/06/27 04:12:03;;;;;;;5.13;1.70;;;15.90;82.20;;;;;;5056606;28;20037;-79
2022/06/27 04:14:34;;;;;;;3.45;1.55;;;15.80;82.40;;;;;;5052199;28;20028;-81
2022/06/27 04:17:01;;;;;;;4.07;1.38;;;15.80;81.90;;;;;;5068358;28;20025;-78
2022/06/27 04:19:28;;;;;;;4.45;1.73;;;15.80;81.70;;;;;;5052985;28;20079;-79
2022/06/27 04:21:56;;;;;;;4.13;1.65;;;15.70;81.80;;;;;;5052652;28;20096;-78
2022/06/27 04:24:23;;;;;;;4.03;1.60;;;15.60;83.10;;;;;;5052926;28;20359;-79
2022/06/27 04:26:50;;;;;;;6.38;2.42;;;15.50;84.10;;;;;;5052739;28;20024;-79
2022/06/27 04:29:17;;;;;;;6.72;1.85;;;15.40;84.50;;;;;;5053276;28;20029;-79
2022/06/27 04:31:45;;;;;;;3.30;1.55;;;15.30;84.70;;;;;;5047494;28;20017;-80
2022/06/27 04:34:12;;;;;;;5.93;1.70;;;15.20;85.10;;;;;;5031400;28;20082;-77
2022/06/27 04:36:41;;;;;;;5.80;2.03;;;15.20;86.10;;;;;;5033248;28;20064;-78
2022/06/27 04:39:13;;;;;;;7.95;2.33;;;15.10;87.00;;;;;;5033362;28;20028;-77
2022/06/27 04:41:41;;;;;;;7.82;2.15;;;15.10;87.70;;;;;;5053437;28;20401;-76
2022/06/27 04:44:08;;;;;;;6.25;1.95;;;15.10;88.20;;;;;;5052619;28;20029;-76
2022/06/27 04:46:36;;;;;;;4.63;1.58;;;15.10;86.60;;;;;;5052334;28;20029;-76
2022/06/27 04:49:03;;;;;;;5.93;1.75;;;15.10;86.10;;;;;;5053111;28;20074;-81
2022/06/27 04:51:31;;;;;;;9.55;2.92;;;15.10;85.70;;;;;;5052823;28;20107;-81
2022/06/27 04:53:59;;;;;;;4.38;2.00;;;15.20;86.00;;;;;;5053939;28;20037;-79
2022/06/27 04:56:27;;;;;;;5.43;2.50;;;15.20;86.00;;;;;;5053341;28;20459;-82
2022/06/27 04:58:54;;;;;;;7.60;2.25;;;15.10;85.00;;;;;;5068442;28;20064;-80
2022/06/27 05:01:22;;;;;;;5.05;1.90;;;15.10;85.50;;;;;;5048359;28;20025;-78
2022/06/27 05:03:49;;;;;;;5.32;1.55;;;15.00;85.80;;;;;;5032469;28;20021;-81
2022/06/27 05:06:18;;;;;;;4.63;1.83;;;14.90;86.20;;;;;;5030327;28;20029;-81
2022/06/27 05:08:46;;;;;;;5.25;1.50;;;14.90;86.70;;;;;;5014561;28;20052;-79
2022/06/27 05:11:13;;;;;;;6.05;1.35;;;14.90;87.40;;;;;;5031921;28;20017;-80
2022/06/27 05:13:40;;;;;;;4.65;1.75;;;14.90;86.80;;;;;;5030757;28;20591;-81
2022/06/27 05:16:08;;;;;;;5.85;1.73;;;14.90;87.20;;;;;;5030870;28;20386;-80
2022/06/27 05:18:35;;;;;;;8.55;2.10;;;14.80;87.60;;;;;;5047353;28;20021;-79
2022/06/27 05:21:06;;;;;;;9.35;1.70;;;14.80;87.10;;;;;;5031870;28;20021;-81
2022/06/27 05:23:33;;;;;;;11.45;2.35;;;14.70;87.30;;;;;;5012066;28;20473;-77
2022/06/27 05:26:09;;;;;;;4.85;2.15;;;14.70;88.00;;;;;;5012356;28;20495;-78
2022/06/27 05:28:37;;;;;;;8.60;1.80;;;14.60;87.70;;;;;;5011639;28;20123;-82
2022/06/27 05:31:05;;;;;;;10.95;2.22;;;14.60;88.20;;;;;;5044967;28;20026;-79
2022/06/27 05:33:32;;;;;;;11.27;1.88;;;14.50;88.80;;;;;;5031708;28;20029;-79
2022/06/27 05:36:00;;;;;;;12.75;1.83;;;14.50;88.90;;;;;;5030792;28;20021;-79
2022/06/27 05:38:28;;;;;;;7.82;1.75;;;14.50;88.50;;;;;;5032066;28;20083;-79
2022/06/27 05:40:55;;;;;;;11.43;3.42;;;14.50;89.00;;;;;;5046720;28;20116;-75
2022/06/27 05:43:23;;;;;;;8.43;2.03;;;14.40;88.20;;;;;;5031626;28;20032;-80
2022/06/27 05:45:50;;;;;;;6.25;1.38;;;14.30;87.20;;;;;;5032049;28;20414;-79
2022/06/27 05:48:19;;;;;;;4.53;1.33;;;14.40;86.70;;;;;;5032193;28;20029;-80
2022/06/27 05:50:46;;;;;;;6.43;1.35;;;14.40;86.70;;;;;;5030512;28;20462;-80
2022/06/27 05:53:13;;;;;;;6.72;2.78;;;14.40;87.40;;;;;;5031523;28;20041;-80
2022/06/27 05:55:41;;;;;;;19.42;2.58;;;14.30;88.40;;;;;;5046802;28;20057;-78
2022/06/27 05:58:10;;;;;;;7.10;2.63;;;14.30;88.20;;;;;;5031675;28;20340;-80
2022/06/27 06:00:38;;;;;;;9.48;2.13;;;14.20;87.20;;;;;;5030254;28;20028;-79
2022/06/27 06:03:08;;;;;;;9.70;2.58;;;14.20;87.10;;;;;;5048098;28;20029;-78
2022/06/27 06:05:36;;;;;;;6.82;1.42;;;14.50;85.90;;;;;;5051506;28;20044;-77
2022/06/27 06:08:05;;;;;;;5.35;1.42;;;14.80;84.90;;;;;;5067890;28;20119;-80
2022/06/27 06:10:35;;;;;;;6.55;1.50;;;15.10;84.00;;;;;;5052426;28;20017;-78
2022/06/27 06:13:36;;;;;;;9.48;1.58;;;15.30;83.40;;;;;;5036052;28;20474;-80
2022/06/27 06:16:06;;;;;;;5.18;1.45;;;15.30;83.90;;;;;;5030073;28;20034;-77
2022/06/27 06:18:35;;;;;;;6.57;1.58;;;15.20;84.70;;;;;;5035835;28;20014;-80
2022/06/27 06:21:02;;;;;;;6.22;1.70;;;15.10;85.70;;;;;;5035950;28;20390;-78
2022/06/27 06:23:32;;;;;;;8.98;1.50;;;15.00;85.00;;;;;;5036312;28;20029;-81
2022/06/27 06:26:02;;;;;;;6.30;1.70;;;14.70;85.70;;;;;;5033810;28;20228;-81
2022/06/27 06:28:33;;;;;;;6.53;2.33;;;14.50;86.10;;;;;;5037186;28;20072;-82
2022/06/27 06:31:07;;;;;;;8.40;2.88;;;14.40;86.40;;;;;;5055081;28;20379;-82
2022/06/27 06:33:36;;;;;;;8.80;3.53;;;14.20;87.90;;;;;;5038122;28;20029;-81
2022/06/27 06:36:35;;;;;;;63.78;44.88;;;14.00;87.40;;;;;;5039487;28;20029;-82
2022/06/27 06:39:15;;;;;;;3.83;2.00;;;13.90;88.00;;;;;;5038719;28;20081;-83
2022/06/27 06:42:06;;;;;;;6.15;1.70;;;13.70;87.90;;;;;;5034205;28;20017;-82
2022/06/27 06:44:34;;;;;;;7.32;1.63;;;13.60;87.40;;;;;;5050633;28;20026;-81
2022/06/27 06:47:15;;;;;;;8.52;2.42;;;13.50;87.30;;;;;;5037197;28;20025;-81
2022/06/27 06:49:44;;;;;;;5.13;2.08;;;13.40;88.00;;;;;;5033442;28;20156;-79
2022/06/27 06:52:13;;;;;;;6.82;2.05;;;13.30;88.10;;;;;;5049287;28;20032;-81
2022/06/27 06:54:45;;;;;;;9.48;2.10;;;13.20;88.20;;;;;;5051587;28;20047;-79
2022/06/27 06:57:13;;;;;;;7.75;2.95;;;13.20;87.90;;;;;;5067193;28;20040;-80
2022/06/27 06:59:40;;;;;;;8.93;2.15;;;13.10;87.50;;;;;;5036917;28;20063;-82
2022/06/27 07:02:08;;;;;;;8.65;1.50;;;13.10;86.80;;;;;;5038532;28;20021;-81
2022/06/27 07:04:39;;;;;;;6.95;1.80;;;13.00;86.10;;;;;;5044241;28;20025;-80
2022/06/27 07:07:10;;;;;;;8.65;1.60;;;13.00;85.70;;;;;;5042370;28;20024;-80
2022/06/27 07:09:45;;;;;;;5.97;2.17;;;13.00;85.60;;;;;;5042143;28;20065;-80
2022/06/27 07:12:13;;;;;;;8.93;3.67;;;12.90;85.00;;;;;;5043846;28;20029;-83
2022/06/27 07:14:40;;;;;;;7.68;4.97;;;12.90;85.00;;;;;;5058729;28;20012;-79
2022/06/27 07:17:08;;;;;;;10.18;2.33;;;12.90;84.50;;;;;;5040152;28;20044;-78
2022/06/27 07:19:39;;;;;;;9.32;2.17;;;12.80;84.00;;;;;;5038997;28;20061;-80
2022/06/27 07:22:07;;;;;;;7.80;2.10;;;12.90;84.00;;;;;;5035922;28;20033;-81
2022/06/27 07:24:34;;;;;;;5.85;2.30;;;12.80;83.90;;;;;;5037425;28;20021;-80
2022/06/27 07:27:01;;;;;;;5.40;1.83;;;12.80;83.70;;;;;;5036024;28;20028;-81
2022/06/27 07:29:29;;;;;;;5.22;1.80;;;12.70;84.10;;;;;;5040545;28;20543;-79
2022/06/27 07:31:57;;;;;;;3.58;1.70;;;12.60;84.10;;;;;;5036734;28;20517;-81
2022/06/27 07:34:25;;;;;;;8.02;1.83;;;12.60;84.00;;;;;;5036360;28;20036;-80
2022/06/27 07:36:52;;;;;;;7.78;2.08;;;12.60;83.90;;;;;;5032626;28;20010;-78
2022/06/27 07:39:20;;;;;;;8.30;2.70;;;12.40;83.70;;;;;;5031308;28;20079;-79
2022/06/27 07:41:49;;;;;;;4.20;1.65;;;12.50;83.70;;;;;;5048014;28;20021;-79
2022/06/27 07:44:18;;;;;;;5.45;1.60;;;12.50;83.30;;;;;;5032963;28;20021;-80
2022/06/27 07:46:47;;;;;;;3.80;1.30;;;12.50;82.90;;;;;;5032453;28;20025;-80
2022/06/27 07:49:15;;;;;;;12.32;5.88;;;12.50;82.80;;;;;;5032760;28;20041;-79
2022/06/27 07:51:42;;;;;;;12.38;3.25;;;12.50;83.10;;;;;;5035814;28;20087;-81
2022/06/27 07:54:10;;;;;;;5.22;2.22;;;12.40;83.10;;;;;;5041667;28;20043;-80
2022/06/27 07:56:39;;;;;;;4.43;2.45;;;12.50;82.80;;;;;;5033675;28;20042;-78
2022/06/27 07:59:07;;;;;;;5.07;1.02;;;12.50;83.00;;;;;;5057391;28;20035;-81
2022/06/27 08:01:35;;;;;;;6.10;2.60;;;12.30;83.00;;;;;;5053419;28;20033;-81
2022/06/27 08:04:04;;;;;;;10.23;5.20;;;12.30;83.00;;;;;;5021313;28;20037;-81
2022/06/27 08:06:31;;;;;;;16.23;11.27;;;12.30;83.10;;;;;;5022445;28;20429;-81
2022/06/27 08:09:04;;;;;;;7.40;4.25;;;12.30;83.20;;;;;;5020020;28;20048;-79
2022/06/27 08:11:31;;;;;;;;;;;12.30;83.50;;;;;;5034029;28;20108;-82
2022/06/27 08:14:19;;;;;;;9.05;3.33;;;12.30;83.70;;;;;;5058043;28;19920;-80
2022/06/27 08:16:51;;;;;;;6.03;2.08;;;12.20;83.80;;;;;;5044487;28;20036;-81
2022/06/27 08:19:19;;;;;;;5.53;2.72;;;12.20;84.00;;;;;;5017146;28;20538;-80
2022/06/27 08:21:47;;;;;;;5.60;1.95;;;12.10;84.20;;;;;;5033950;28;20036;-80
2022/06/27 08:24:18;;;;;;;5.72;1.95;;;12.20;84.40;;;;;;5049033;28;20025;-81
2022/06/27 08:26:49;;;;;;;6.70;2.42;;;12.20;84.60;;;;;;5033309;28;20025;-81
2022/06/27 08:29:21;;;;;;;3.88;1.45;;;12.20;84.70;;;;;;5048521;28;20041;-82
2022/06/27 08:31:52;;;;;;;7.97;2.67;;;12.20;84.50;;;;;;5017036;28;20948;-80
2022/06/27 08:34:21;;;;;;;6.85;4.10;;;12.30;84.50;;;;;;5042588;28;20041;-78
2022/06/27 08:36:48;;;;;;;10.00;5.22;;;12.30;86.00;;;;;;5051009;28;20350;-78
2022/06/27 08:39:18;;;;;;;6.57;2.15;;;12.20;85.70;;;;;;5049112;28;20060;-79
2022/06/27 08:41:47;;;;;;;5.43;2.92;;;12.20;86.00;;;;;;5033233;28;20029;-77
2022/06/27 08:44:16;;;;;;;3.65;1.45;;;12.10;86.10;;;;;;5033055;28;20018;-74
2022/06/27 08:46:51;;;;;;;5.65;2.28;;;12.00;85.80;;;;;;5033286;28;20078;-77
2022/06/27 08:49:20;;;;;;;5.03;2.08;;;11.90;86.60;;;;;;5033987;28;20025;-75
2022/06/27 08:51:47;;;;;;;4.65;2.50;;;11.80;87.00;;;;;;5050762;28;20124;-75
2022/06/27 08:54:14;;;;;;;5.68;2.00;;;11.80;87.40;;;;;;5052846;28;20110;-76
2022/06/27 08:56:43;;;;;;;3.97;2.20;;;11.70;87.60;;;;;;5053130;28;20167;-76
2022/06/27 08:59:10;;;;;;;9.93;4.10;;;11.60;88.00;;;;;;5052603;28;20028;-74
2022/06/27 09:01:39;;;;;;;5.20;1.75;;;11.50;87.80;;;;;;5052544;28;20017;-76
2022/06/27 09:04:09;;;;;;;4.95;2.70;;;11.40;88.00;;;;;;5052469;28;20496;-77
2022/06/27 09:06:43;;;;;;;7.68;2.72;;;11.40;88.00;;;;;;5052514;28;20049;-79
2022/06/27 09:09:13;;;;;;;7.70;2.50;;;11.30;87.90;;;;;;5050452;28;20070;-83
2022/06/27 09:11:43;;;;;;;11.82;7.90;;;11.30;88.30;;;;;;5027422;28;20024;-77
2022/06/27 09:14:42;;;;;;;3.30;1.90;;;11.30;88.00;;;;;;5046215;28;20504;-79
2022/06/27 09:17:15;;;;;;;6.22;2.78;;;11.30;88.10;;;;;;5052025;28;20040;-77
2022/06/27 09:19:50;;;;;;;5.38;2.55;;;11.20;88.20;;;;;;5046020;28;20055;-78
2022/06/27 09:22:19;;;;;;;5.40;2.58;;;11.20;88.70;;;;;;5031368;28;20033;-76
2022/06/27 09:25:21;;;;;;;6.40;2.80;;;11.20;87.90;;;;;;5032768;28;20056;-74
2022/06/27 09:27:51;;;;;;;4.18;2.47;;;11.20;88.10;;;;;;5042015;28;20029;-73
2022/06/27 09:30:21;;;;;;;4.25;3.58;;;11.20;88.10;;;;;;5040561;28;20026;-79
2022/06/27 09:32:52;;;;;;;6.05;2.60;;;11.20;87.80;;;;;;5052315;28;20039;-77
2022/06/27 09:35:39;;;;;;;2.75;1.20;;;11.30;87.50;;;;;;5051654;28;20014;-80
2022/06/27 09:38:09;;;;;;;7.28;4.57;;;11.40;88.10;;;;;;5036872;28;20068;-78
2022/06/27 09:40:40;;;;;;;5.82;3.30;;;11.50;90.10;;;;;;5032908;28;20080;-76
2022/06/27 09:43:09;;;;;;;2.92;1.38;;;11.60;90.50;;;;;;5044481;28;20790;-84
2022/06/27 09:45:37;;;;;;;4.25;1.80;;;11.50;90.50;;;;;;5053269;28;20025;-80
2022/06/27 09:48:06;;;;;;;6.40;1.52;;;11.50;90.80;;;;;;5053045;28;20021;-82
2022/06/27 09:50:39;;;;;;;3.88;1.20;;;11.50;90.40;;;;;;5053691;28;20369;-77
2022/06/27 09:53:08;;;;;;;6.47;3.15;;;11.50;90.30;;;;;;5036289;28;20038;-81
2022/06/27 09:55:36;;;;;;;4.82;1.55;;;11.60;89.90;;;;;;5054572;28;20040;-79
2022/06/27 09:58:06;;;;;;;6.00;2.00;;;11.50;90.10;;;;;;5056390;28;20111;-79
2022/06/27 10:00:34;;;;;;;4.10;1.25;;;11.50;89.80;;;;;;5042865;28;20022;-78
2022/06/27 10:03:02;;;;;;;5.32;2.15;;;11.60;89.90;;;;;;5038176;28;20025;-77
2022/06/27 10:05:29;;;;;;;3.50;1.73;;;11.60;90.00;;;;;;5036551;28;20025;-76
2022/06/27 10:07:58;;;;;;;4.65;1.42;;;11.60;90.60;;;;;;5036361;28;20048;-79
2022/06/27 10:10:52;;;;;;;4.88;1.45;;;11.70;92.70;;;;;;5036918;28;20022;-82
2022/06/27 10:13:19;;;;;;;7.25;1.48;;;11.70;93.80;;;;;;5053520;28;20041;-79
2022/06/27 10:15:49;;;;;;;6.95;1.73;;;11.60;94.30;;;;;;5055445;28;20025;-78
2022/06/27 10:18:17;;;;;;;4.20;1.70;;;11.50;94.80;;;;;;5015901;28;20018;-79
2022/06/27 10:20:47;;;;;;;8.10;2.17;;;11.40;95.50;;;;;;5037702;28;20080;-78
2022/06/27 10:23:14;;;;;;;9.57;1.88;;;11.30;95.60;;;;;;5054124;28;20094;-76
2022/06/27 10:25:47;;;;;;;7.38;2.08;;;11.30;96.20;;;;;;5055421;28;20485;-76
2022/06/27 10:28:14;;;;;;;6.65;1.83;;;11.30;96.60;;;;;;5055343;28;20024;-80
2022/06/27 10:30:58;;;;;;;9.40;2.78;;;11.20;96.80;;;;;;5054006;28;20033;-76
2022/06/27 10:33:27;;;;;;;7.00;1.80;;;11.20;97.30;;;;;;5054878;28;20029;-79
2022/06/27 10:38:40;;;;;;;6.65;1.67;;;11.30;96.80;;;;;;5055320;28;20033;-81
2022/06/27 10:41:31;;;;;;;7.38;2.15;;;11.30;96.60;;;;;;5051630;28;20025;-78
2022/06/27 10:44:03;;;;;;;6.22;2.35;;;11.40;96.20;;;;;;5070359;28;20025;-79
2022/06/27 10:46:30;;;;;;;7.68;2.33;;;11.30;96.10;;;;;;5041409;28;20462;-76
2022/06/27 10:48:59;;;;;;;9.07;2.05;;;11.30;96.10;;;;;;5045330;28;20036;-75
2022/06/27 10:51:32;;;;;;;7.68;2.30;;;11.20;96.30;;;;;;5035023;28;20504;-79
2022/06/27 10:54:05;;;;;;;5.93;2.35;;;11.20;96.40;;;;;;5033425;28;20048;-76
2022/06/27 10:56:43;;;;;;;8.25;2.65;;;11.20;96.60;;;;;;5047496;28;20041;-75
2022/06/27 10:59:16;;;;;;;10.57;2.03;;;11.10;96.60;;;;;;5054102;28;20469;-76
2022/06/27 11:02:10;;;;;;;13.23;4.07;;;11.10;97.00;;;;;;5054604;28;20017;-75
2022/06/27 11:04:38;;;;;;;7.40;2.85;;;11.10;98.00;;;;;;5052214;28;20101;-76
2022/06/27 11:07:07;;;;;;;10.00;3.00;;;11.10;98.40;;;;;;5052989;28;20029;-75
2022/06/27 11:09:48;;;;;;;9.25;2.33;;;11.10;98.80;;;;;;5052798;28;20112;-75
2022/06/27 11:12:18;;;;;;;15.13;4.00;;;11.00;99.20;;;;;;5054358;28;20069;-75
2022/06/27 11:14:49;;;;;;;7.47;2.38;;;11.00;99.30;;;;;;5053437;28;20033;-75
2022/06/27 11:17:29;;;;;;;6.80;2.00;;;11.00;99.70;;;;;;5051600;28;20017;-74
2022/06/27 11:20:20;;;;;;;6.88;2.38;;;10.90;99.60;;;;;;5014217;28;20445;-76
2022/06/27 11:22:52;;;;;;;9.82;3.05;;;10.80;98.70;;;;;;5014672;28;20502;-75
2022/06/27 11:25:24;;;;;;;6.80;3.72;;;10.80;97.00;;;;;;5052502;28;20064;-75
2022/06/27 11:31:57;;;;;;;21.27;12.45;;;10.70;96.70;;;;;;5069136;28;20021;-75
2022/06/27 11:33:34;;;;;;;23.15;14.40;;;10.60;96.00;;;;;;5054028;28;20056;-75
2022/06/27 11:36:02;;;;;;;12.70;6.88;;;10.60;96.00;;;;;;5054145;28;20017;-73
2022/06/27 11:38:46;;;;;;;8.75;2.80;;;10.60;96.40;;;;;;5054118;28;20039;-74
2022/06/27 11:41:16;;;;;;;11.43;7.35;;;10.60;97.40;;;;;;5053890;28;20100;-74
2022/06/27 11:43:52;;;;;;;12.68;10.07;;;10.50;97.70;;;;;;5053643;28;20029;-74
2022/06/27 11:46:25;;;;;;;8.75;4.03;;;10.50;97.80;;;;;;5055791;28;20091;-75
2022/06/27 11:48:58;;;;;;;8.25;5.47;;;10.30;97.60;;;;;;5054121;28;20075;-74
2022/06/27 11:51:44;;;;;;;6.43;2.50;;;10.30;98.00;;;;;;5054037;28;20033;-75
2022/06/27 11:54:14;;;;;;;15.60;8.35;;;10.30;99.00;;;;;;5069060;28;20033;-75
2022/06/27 11:56:44;;;;;;;12.05;8.23;;;10.20;98.00;;;;;;5053818;28;20096;-75
2022/06/27 11:59:13;;;;;;;12.63;6.75;;;10.20;98.40;;;;;;5053710;28;20029;-75
2022/06/27 12:02:03;;;;;;;7.35;3.15;;;10.20;98.60;;;;;;5052171;28;20104;-75
2022/06/27 12:04:34;;;;;;;4.88;2.60;;;10.10;98.70;;;;;;5053357;28;20082;-75
2022/06/27 12:07:05;;;;;;;5.00;2.95;;;10.00;99.10;;;;;;5068975;28;20025;-73
2022/06/27 12:09:46;;;;;;;6.22;2.50;;;10.00;99.60;;;;;;5051152;28;20079;-71
2022/06/27 12:12:18;;;;;;;5.93;2.90;;;10.00;99.80;;;;;;5030723;28;20044;-73
2022/06/27 12:14:48;;;;;;;6.55;3.50;;;9.90;99.90;;;;;;5032172;28;20379;-74
2022/06/27 12:17:16;;;;;;;8.05;3.55;;;9.90;99.90;;;;;;5064493;28;20048;-73
2022/06/27 12:19:44;;;;;;;6.82;3.03;;;9.80;99.90;;;;;;5032639;28;20064;-74
2022/06/27 12:22:13;;;;;;;5.43;2.67;;;9.80;99.90;;;;;;5032810;28;20032;-74
2022/06/27 12:24:41;;;;;;;6.40;2.67;;;9.70;99.90;;;;;;5036138;28;20025;-73
2022/06/27 12:27:08;;;;;;;5.75;2.97;;;9.60;99.90;;;;;;5038076;28;20030;-72
2022/06/27 12:29:35;;;;;;;7.18;2.92;;;9.50;99.90;;;;;;5032579;28;20025;-73
2022/06/27 12:32:03;;;;;;;6.32;2.88;;;9.40;99.90;;;;;;5038003;28;20059;-73
2022/06/27 12:34:31;;;;;;;6.68;4.65;;;9.20;99.90;;;;;;5031210;28;20033;-73
2022/06/27 12:36:58;;;;;;;11.63;3.50;;;9.20;99.90;;;;;;5033435;28;20474;-74
2022/06/27 12:39:28;;;;;;;8.00;3.00;;;9.10;99.90;;;;;;5050231;28;20363;-75
2022/06/27 12:41:56;;;;;;;4.60;2.90;;;9.20;99.90;;;;;;5032940;28;20411;-75
2022/06/27 12:44:25;;;;;;;6.97;3.00;;;9.10;99.90;;;;;;5042626;28;20037;-76
2022/06/27 12:46:53;;;;;;;5.13;2.75;;;9.20;99.90;;;;;;5033307;28;20017;-75
2022/06/27 12:49:20;;;;;;;5.30;3.22;;;9.20;99.90;;;;;;5032758;28;20017;-74
2022/06/27 12:51:49;;;;;;;13.55;3.55;;;9.20;99.90;;;;;;5033383;28;20029;-75
2022/06/27 12:54:18;;;;;;;5.50;2.38;;;9.30;99.90;;;;;;5034415;28;20044;-75
2022/06/27 12:56:49;;;;;;;7.50;2.97;;;9.30;99.80;;;;;;5038827;28;20163;-75
2022/06/27 12:59:16;;;;;;;7.75;3.00;;;9.30;99.90;;;;;;5033921;28;20117;-75
2022/06/27 13:01:44;;;;;;;4.70;2.13;;;9.40;99.60;;;;;;5033767;28;20010;-75
2022/06/27 13:04:12;;;;;;;6.07;2.63;;;9.40;99.30;;;;;;5050355;28;20087;-75
2022/06/27 13:06:39;;;;;;;6.00;2.60;;;9.40;99.00;;;;;;5033018;28;20096;-75
2022/06/27 13:09:08;;;;;;;6.70;2.75;;;9.40;98.90;;;;;;5033784;28;20081;-74
2022/06/27 13:11:35;;;;;;;8.68;2.63;;;9.40;98.60;;;;;;5034591;28;20018;-76